createdAt,value
2019-01-03T00:01:56.921Z,12.18
2019-01-03T00:04:48.257Z,12.37
2019-01-03T00:07:35.151Z,10.70
2019-01-03T00:10:22.491Z,11.60
2019-01-03T00:13:09.489Z,11.60
2019-01-03T00:16:15.797Z,12.90
2019-01-03T00:19:04.147Z,13.48
2019-01-03T00:21:52.736Z,12.80
2019-01-03T00:24:46.852Z,13.30
2019-01-03T00:27:28.936Z,13.62
2019-01-03T00:30:15.864Z,13.93
2019-01-03T00:33:07.275Z,14.07
2019-01-03T00:35:58.377Z,13.28
2019-01-03T00:38:45.312Z,12.90
2019-01-03T00:41:33.651Z,11.85
2019-01-03T00:44:16.874Z,11.40
2019-01-03T00:47:08.060Z,11.18
2019-01-03T00:49:55.204Z,11.65
2019-01-03T00:53:01.819Z,10.85
2019-01-03T00:55:48.866Z,10.50
2019-01-03T00:58:43.285Z,11.18
2019-01-03T01:01:45.012Z,10.72
2019-01-03T01:04:31.721Z,11.48
2019-01-03T01:07:14.227Z,11.00
2019-01-03T01:10:17.743Z,10.98
2019-01-03T01:13:04.743Z,9.55
2019-01-03T01:15:55.584Z,10.65
2019-01-03T01:18:41.335Z,9.75
2019-01-03T01:21:35.416Z,10.35
2019-01-03T01:24:22.225Z,10.70
2019-01-03T01:27:09.391Z,10.68
2019-01-03T01:29:56.184Z,10.35
2019-01-03T01:32:47.290Z,10.50
2019-01-03T01:35:31.720Z,11.33
2019-01-03T01:38:25.639Z,9.53
2019-01-03T01:41:12.376Z,9.23
2019-01-03T01:43:59.320Z,10.30
2019-01-03T01:46:56.408Z,10.58
2019-01-03T01:50:02.916Z,10.28
2019-01-03T01:52:51.273Z,10.88
2019-01-03T01:55:54.552Z,9.78
2019-01-03T01:58:38.155Z,9.70
2019-01-03T02:01:44.741Z,9.60
2019-01-03T02:04:31.654Z,9.50
2019-01-03T02:07:29.481Z,7.87
2019-01-03T02:10:29.973Z,9.43
2019-01-03T02:13:27.599Z,10.55
2019-01-03T02:16:14.597Z,8.93
2019-01-03T02:19:17.958Z,8.90
2019-01-03T02:22:08.914Z,9.05
2019-01-03T02:24:56.178Z,9.83
2019-01-03T02:27:50.388Z,7.87
2019-01-03T02:30:54.017Z,10.18
2019-01-03T02:33:54.287Z,8.68
2019-01-03T02:36:41.340Z,9.35
2019-01-03T02:39:28.505Z,10.93
2019-01-03T02:42:29.865Z,10.03
2019-01-03T02:45:21.009Z,10.82
2019-01-03T02:48:24.349Z,10.05
2019-01-03T02:51:09.526Z,9.50
2019-01-03T02:54:04.170Z,11.35
2019-01-03T02:56:53.244Z,11.93
2019-01-03T02:59:41.592Z,11.45
2019-01-03T03:02:41.857Z,11.05
2019-01-03T03:05:48.354Z,11.45
2019-01-03T03:08:35.209Z,10.85
2019-01-03T03:11:29.743Z,9.95
2019-01-03T03:14:16.547Z,10.50
2019-01-03T03:17:03.605Z,10.78
2019-01-03T03:19:45.723Z,10.10
2019-01-03T03:22:34.061Z,10.13
2019-01-03T03:25:28.773Z,11.15
2019-01-03T03:28:26.407Z,10.30
2019-01-03T03:31:13.308Z,10.20
2019-01-03T03:34:10.713Z,10.20
2019-01-03T03:37:04.956Z,11.05
2019-01-03T03:39:53.292Z,11.48
2019-01-03T03:42:40.488Z,9.23
2019-01-03T03:45:43.159Z,9.23
2019-01-03T03:48:30.505Z,9.90
2019-01-03T03:51:17.445Z,9.65
2019-01-03T03:54:23.952Z,9.20
2019-01-03T03:57:11.196Z,10.13
2019-01-03T03:59:57.945Z,12.00
2019-01-03T04:02:55.635Z,8.80
2019-01-03T04:05:43.944Z,10.40
2019-01-03T04:08:30.733Z,9.73
2019-01-03T04:11:25.139Z,9.10
2019-01-03T04:14:16.164Z,8.75
2019-01-03T04:17:02.308Z,9.10
2019-01-03T04:19:50.716Z,9.88
2019-01-03T04:22:45.257Z,9.90
2019-01-03T04:25:36.334Z,8.70
2019-01-03T04:28:24.747Z,9.63
2019-01-03T04:31:11.654Z,9.25
2019-01-03T04:33:54.433Z,8.50
2019-01-03T04:36:48.583Z,9.25
2019-01-03T04:39:35.849Z,8.60
2019-01-03T04:42:20.822Z,8.33
2019-01-03T04:45:09.197Z,10.55
2019-01-03T04:47:56.116Z,9.25
2019-01-03T04:51:02.299Z,8.03
2019-01-03T04:53:49.376Z,8.13
2019-01-03T04:56:49.744Z,9.93
2019-01-03T04:59:46.780Z,10.65
2019-01-03T05:02:53.180Z,9.78
2019-01-03T05:05:50.890Z,9.30
2019-01-03T05:08:37.930Z,9.20
2019-01-03T05:11:38.652Z,8.63
2019-01-03T05:14:29.728Z,8.68
2019-01-03T05:17:16.912Z,8.13
2019-01-03T05:20:04.119Z,9.18
2019-01-03T05:23:07.818Z,9.53
2019-01-03T05:25:56.128Z,7.72
2019-01-03T05:28:59.484Z,8.43
2019-01-03T05:31:59.683Z,8.45
2019-01-03T05:34:53.605Z,8.08
2019-01-03T05:37:39.517Z,9.50
2019-01-03T05:40:46.111Z,8.58
2019-01-03T05:43:32.930Z,7.95
2019-01-03T05:46:20.839Z,7.50
2019-01-03T05:49:15.294Z,8.75
2019-01-03T05:52:03.821Z,7.30
2019-01-03T05:54:50.779Z,8.80
2019-01-03T05:57:51.110Z,8.00
2019-01-03T06:00:48.548Z,6.97
2019-01-03T06:03:55.029Z,7.42
2019-01-03T06:06:55.109Z,7.10
2019-01-03T06:09:33.469Z,7.28
2019-01-03T06:12:27.640Z,8.28
2019-01-03T06:15:16.520Z,6.95
2019-01-03T06:18:17.044Z,7.17
2019-01-03T06:21:04.013Z,8.00
2019-01-03T06:23:55.329Z,7.42
2019-01-03T06:27:01.953Z,7.22
2019-01-03T06:29:59.263Z,8.18
2019-01-03T06:32:47.161Z,9.03
2019-01-03T06:35:38.505Z,7.50
2019-01-03T06:38:45.008Z,7.00
2019-01-03T06:41:42.534Z,8.05
2019-01-03T06:44:31.176Z,7.80
2019-01-03T06:47:18.344Z,7.17
2019-01-03T06:50:06.664Z,7.05
2019-01-03T06:53:10.089Z,7.05
2019-01-03T06:56:10.587Z,7.72
2019-01-03T06:59:05.009Z,7.58
2019-01-03T07:01:51.981Z,9.28
2019-01-03T07:04:46.112Z,7.08
2019-01-03T07:07:33.359Z,7.30
2019-01-03T07:10:36.697Z,6.65
2019-01-03T07:13:27.614Z,7.95
2019-01-03T07:16:15.890Z,6.25
2019-01-03T07:19:12.923Z,8.23
2019-01-03T07:22:02.736Z,10.88
2019-01-03T07:24:49.931Z,16.00
2019-01-03T07:27:56.413Z,125.58
2019-01-03T07:30:48.675Z,999.90
2019-01-03T07:33:36.999Z,882.70
2019-01-03T07:36:38.524Z,436.47
2019-01-03T07:39:33.112Z,108.42
2019-01-03T07:42:31.448Z,60.95
2019-01-03T07:45:18.149Z,75.20
2019-01-03T07:48:06.512Z,48.15
2019-01-03T07:51:02.078Z,33.90
2019-01-03T07:53:50.582Z,36.98
2019-01-03T07:56:55.557Z,18.45
2019-01-03T08:00:02.228Z,20.80
2019-01-03T08:02:49.139Z,20.17
2019-01-03T08:05:36.483Z,12.68
2019-01-03T08:08:24.800Z,14.90
2019-01-03T08:11:11.916Z,16.60
2019-01-03T08:14:00.297Z,12.28
2019-01-03T08:16:47.377Z,17.67
2019-01-03T08:19:46.812Z,12.82
2019-01-03T08:22:41.124Z,12.07
2019-01-03T08:25:28.105Z,16.20
2019-01-03T08:28:22.267Z,10.65
2019-01-03T08:31:09.132Z,9.38
2019-01-03T08:34:12.600Z,8.63
2019-01-03T08:36:59.545Z,12.50
2019-01-03T08:39:46.340Z,7.95
2019-01-03T08:42:46.942Z,7.10
2019-01-03T08:45:34.393Z,8.85
2019-01-03T08:48:29.188Z,7.20
2019-01-03T08:51:17.500Z,7.17
2019-01-03T08:54:24.059Z,5.12
2019-01-03T08:57:15.414Z,6.28
2019-01-03T09:00:06.445Z,5.25
2019-01-03T09:02:53.462Z,7.65
2019-01-03T09:05:41.228Z,11.22
2019-01-03T09:08:29.569Z,12.37
2019-01-03T09:11:28.012Z,38.20
2019-01-03T09:14:31.360Z,10.23
2019-01-03T09:17:11.869Z,7.20
2019-01-03T09:20:06.215Z,7.00
2019-01-03T09:22:55.018Z,9.75
2019-01-03T09:25:46.001Z,13.40
2019-01-03T09:28:36.116Z,12.00
2019-01-03T09:31:30.060Z,21.95
2019-01-03T09:34:16.284Z,13.30
2019-01-03T09:37:04.744Z,9.15
2019-01-03T09:39:51.953Z,8.78
2019-01-03T09:42:42.965Z,32.35
2019-01-03T09:45:12.374Z,261.43
2019-01-03T09:47:44.288Z,74.70
2019-01-03T09:50:14.597Z,27.58
2019-01-03T09:52:45.013Z,13.10
2019-01-03T09:55:15.756Z,78.95
2019-01-03T09:57:45.253Z,74.45
2019-01-03T10:00:14.690Z,21.33
2019-01-03T10:02:44.152Z,6.80
2019-01-03T10:05:13.572Z,6.92
2019-01-03T10:07:44.367Z,6.55
2019-01-03T10:10:13.780Z,7.67
2019-01-03T10:12:43.299Z,15.18
2019-01-03T10:15:12.728Z,9.70
2019-01-03T10:17:43.313Z,17.82
2019-01-03T10:20:12.820Z,5.85
2019-01-03T10:22:42.336Z,6.35
2019-01-03T10:25:11.826Z,11.30
2019-01-03T10:27:41.333Z,23.07
2019-01-03T10:30:10.735Z,9.40
2019-01-03T10:32:41.980Z,13.08
2019-01-03T10:35:12.862Z,6.58
2019-01-03T10:37:42.349Z,6.55
2019-01-03T10:40:11.844Z,9.63
2019-01-03T10:42:41.272Z,22.73
2019-01-03T10:45:11.084Z,23.12
2019-01-03T10:47:40.561Z,8.10
2019-01-03T10:50:09.980Z,14.15
2019-01-03T10:52:39.525Z,16.63
2019-01-03T10:55:08.976Z,38.05
2019-01-03T10:57:38.385Z,4.33
2019-01-03T11:00:08.242Z,8.90
2019-01-03T11:02:38.913Z,6.17
2019-01-03T11:05:08.416Z,5.37
2019-01-03T11:07:37.817Z,5.57
2019-01-03T11:10:09.040Z,5.80
2019-01-03T11:12:38.469Z,12.17
2019-01-03T11:15:08.511Z,6.20
2019-01-03T11:17:39.711Z,9.83
2019-01-03T11:20:09.275Z,10.00
2019-01-03T11:22:38.748Z,4.67
2019-01-03T11:25:08.138Z,5.53
2019-01-03T11:27:37.567Z,7.50
2019-01-03T11:30:08.637Z,5.57
2019-01-03T11:32:38.166Z,6.53
2019-01-03T11:35:08.890Z,5.45
2019-01-03T11:37:38.397Z,16.80
2019-01-03T11:40:08.021Z,13.95
2019-01-03T11:42:39.392Z,10.48
2019-01-03T11:45:08.800Z,7.30
2019-01-03T11:47:38.207Z,6.95
2019-01-03T11:50:09.183Z,7.62
2019-01-03T11:52:39.640Z,4.65
2019-01-03T11:55:09.105Z,4.92
2019-01-03T11:57:38.524Z,4.53
2019-01-03T12:00:09.721Z,4.70
2019-01-03T12:02:39.231Z,4.90
2019-01-03T12:05:09.166Z,4.37
2019-01-03T12:07:38.568Z,3.90
2019-01-03T12:10:08.100Z,6.00
2019-01-03T12:12:37.509Z,4.10
2019-01-03T12:15:09.340Z,4.25
2019-01-03T12:17:38.825Z,5.05
2019-01-03T12:20:08.453Z,4.10
2019-01-03T12:22:37.938Z,5.17
2019-01-03T12:25:07.335Z,4.72
2019-01-03T12:27:39.735Z,4.17
2019-01-03T12:30:10.474Z,4.47
2019-01-03T12:32:41.684Z,5.35
2019-01-03T12:35:11.173Z,4.95
2019-01-03T12:37:40.616Z,4.62
2019-01-03T12:40:10.377Z,4.62
2019-01-03T12:42:40.064Z,4.87
2019-01-03T12:45:09.624Z,4.75
2019-01-03T12:47:39.091Z,4.55
2019-01-03T12:50:10.680Z,4.97
2019-01-03T12:52:40.132Z,4.65
2019-01-03T12:55:09.604Z,4.55
2019-01-03T12:57:39.040Z,4.97
2019-01-03T13:00:11.544Z,5.30
2019-01-03T13:02:41.028Z,4.80
2019-01-03T13:05:10.459Z,5.12
2019-01-03T13:07:39.856Z,5.60
2019-01-03T13:10:09.987Z,6.20
2019-01-03T13:12:39.406Z,5.70
2019-01-03T13:15:09.355Z,5.15
2019-01-03T13:17:38.773Z,4.92
2019-01-03T13:20:09.068Z,4.50
2019-01-03T13:22:38.504Z,6.80
2019-01-03T13:25:07.921Z,5.60
2019-01-03T13:27:37.324Z,4.03
2019-01-03T13:30:08.312Z,4.90
2019-01-03T13:32:37.740Z,4.97
2019-01-03T13:35:07.145Z,4.43
2019-01-03T13:37:36.539Z,4.60
2019-01-03T13:40:06.740Z,3.77
2019-01-03T13:42:36.173Z,4.20
2019-01-03T13:45:05.869Z,4.40
2019-01-03T13:47:35.293Z,3.33
2019-01-03T13:50:05.480Z,4.40
2019-01-03T13:52:34.911Z,3.20
2019-01-03T13:55:04.354Z,3.57
2019-01-03T13:57:33.762Z,3.63
2019-01-03T14:00:03.345Z,3.43
2019-01-03T14:02:32.745Z,3.67
2019-01-03T14:05:02.159Z,3.37
2019-01-03T14:07:31.568Z,4.30
2019-01-03T14:10:01.136Z,4.00
2019-01-03T14:12:30.619Z,3.73
2019-01-03T14:15:00.173Z,3.47
2019-01-03T14:17:29.592Z,4.10
2019-01-03T14:19:58.993Z,3.90
2019-01-03T14:22:28.424Z,4.13
2019-01-03T14:24:57.820Z,4.20
2019-01-03T14:27:27.220Z,4.47
2019-01-03T14:29:56.643Z,3.87
2019-01-03T14:32:26.053Z,4.10
2019-01-03T14:34:55.449Z,3.70
2019-01-03T14:37:24.941Z,3.90
2019-01-03T14:39:54.436Z,3.40
2019-01-03T14:42:23.836Z,2.97
2019-01-03T14:44:53.249Z,3.53
2019-01-03T14:47:22.657Z,3.97
2019-01-03T14:49:52.085Z,3.43
2019-01-03T14:52:21.485Z,3.40
2019-01-03T14:54:50.927Z,3.93
2019-01-03T14:57:20.342Z,3.77
2019-01-03T14:59:49.748Z,3.30
2019-01-03T15:02:19.182Z,4.10
2019-01-03T15:04:48.654Z,3.17
2019-01-03T15:07:18.148Z,4.57
2019-01-03T15:09:47.552Z,4.30
2019-01-03T15:12:17.032Z,3.93
2019-01-03T15:14:46.536Z,3.80
2019-01-03T15:17:15.940Z,3.87
2019-01-03T15:19:45.348Z,4.17
2019-01-03T15:22:14.876Z,4.57
2019-01-03T15:24:46.180Z,5.00
2019-01-03T15:27:15.697Z,5.47
2019-01-03T15:29:45.183Z,7.23
2019-01-03T15:32:15.838Z,5.00
2019-01-03T15:34:45.313Z,4.80
2019-01-03T15:37:15.693Z,4.97
2019-01-03T15:40:04.260Z,4.50
2019-01-03T15:42:33.667Z,7.33
2019-01-03T15:45:03.182Z,5.80
2019-01-03T15:47:32.768Z,12.27
2019-01-03T15:50:02.393Z,7.17
2019-01-03T15:52:31.896Z,6.27
2019-01-03T15:55:01.304Z,7.40
2019-01-03T15:57:30.805Z,7.00
2019-01-03T16:00:00.342Z,8.13
2019-01-03T16:02:29.780Z,8.53
2019-01-03T16:05:01.016Z,7.80
2019-01-03T16:07:30.464Z,8.57
2019-01-03T16:09:59.868Z,8.77
2019-01-03T16:12:30.917Z,7.73
2019-01-03T16:15:00.415Z,7.27
2019-01-03T16:17:29.888Z,6.33
2019-01-03T16:19:59.520Z,6.00
2019-01-03T16:22:30.219Z,6.80
2019-01-03T16:25:00.084Z,8.47
2019-01-03T16:27:29.645Z,7.43
2019-01-03T16:29:59.048Z,8.47
2019-01-03T16:32:29.576Z,10.57
2019-01-03T16:34:58.990Z,9.17
2019-01-03T16:37:28.484Z,10.03
2019-01-03T16:39:59.101Z,10.50
2019-01-03T16:42:54.876Z,8.90
2019-01-03T16:45:24.397Z,9.27
2019-01-03T16:47:53.796Z,9.80
2019-01-03T16:50:23.211Z,9.93
2019-01-03T16:52:52.628Z,8.63
2019-01-03T16:55:22.019Z,10.00
2019-01-03T16:57:51.482Z,11.50
2019-01-03T17:00:20.880Z,11.30
2019-01-03T17:02:50.356Z,11.80
2019-01-03T17:05:20.884Z,10.50
2019-01-03T17:07:50.368Z,13.40
2019-01-03T17:10:20.108Z,11.80
2019-01-03T17:12:49.604Z,11.70
2019-01-03T17:15:19.099Z,10.73
2019-01-03T17:17:50.349Z,11.00
2019-01-03T17:20:19.761Z,10.30
2019-01-03T17:22:50.164Z,9.80
2019-01-03T17:25:19.584Z,8.80
2019-01-03T17:27:49.002Z,10.10
2019-01-03T17:30:18.495Z,8.57
2019-01-03T17:32:47.937Z,10.57
2019-01-03T17:35:19.140Z,9.83
2019-01-03T17:37:48.580Z,10.73
2019-01-03T17:40:19.124Z,13.07
2019-01-03T17:42:49.868Z,9.93
2019-01-03T17:45:20.745Z,10.13
2019-01-03T17:47:50.203Z,13.30
2019-01-03T17:50:20.542Z,14.63
2019-01-03T17:52:52.637Z,10.40
2019-01-03T17:55:22.044Z,12.00
2019-01-03T17:57:51.499Z,10.40
2019-01-03T18:00:22.429Z,8.87
2019-01-03T18:02:52.733Z,8.53
2019-01-03T18:05:22.164Z,10.60
2019-01-03T18:07:53.373Z,9.40
2019-01-03T18:10:23.904Z,10.03
2019-01-03T18:12:53.349Z,8.50
2019-01-03T18:15:23.853Z,8.97
2019-01-03T18:17:53.303Z,8.50
2019-01-03T18:20:23.843Z,7.70
2019-01-03T18:22:53.317Z,8.73
2019-01-03T18:25:22.805Z,8.03
2019-01-03T18:27:52.316Z,8.93
2019-01-03T18:30:21.720Z,7.60
2019-01-03T18:32:51.115Z,8.13
2019-01-03T18:35:22.345Z,6.40
2019-01-03T18:37:51.771Z,7.60
2019-01-03T18:40:21.200Z,6.30
2019-01-03T18:42:50.628Z,6.90
2019-01-03T18:45:22.912Z,6.93
2019-01-03T18:47:52.396Z,6.83
2019-01-03T18:50:21.830Z,6.67
2019-01-03T18:52:51.241Z,7.23
2019-01-03T18:55:20.715Z,6.87
2019-01-03T18:57:50.360Z,6.10
2019-01-03T19:00:19.844Z,6.77
2019-01-03T19:02:49.272Z,6.97
2019-01-03T19:05:18.772Z,7.60
2019-01-03T19:07:49.249Z,7.30
2019-01-03T19:10:18.736Z,6.97
2019-01-03T19:12:49.615Z,8.17
2019-01-03T19:15:19.196Z,7.50
2019-01-03T19:17:48.776Z,8.47
2019-01-03T19:20:18.313Z,9.20
2019-01-03T19:22:47.788Z,8.40
2019-01-03T19:25:18.913Z,8.00
2019-01-03T19:27:48.366Z,7.70
2019-01-03T19:30:17.781Z,8.27
2019-01-03T19:32:49.016Z,9.13
2019-01-03T19:35:18.428Z,7.80
2019-01-03T19:37:47.932Z,8.17
2019-01-03T19:40:17.457Z,7.93
2019-01-03T19:42:47.879Z,8.20
2019-01-03T19:45:17.596Z,7.60
2019-01-03T19:47:47.107Z,7.83
2019-01-03T19:50:18.864Z,7.80
2019-01-03T19:52:48.348Z,7.67
2019-01-03T19:55:17.880Z,8.00
2019-01-03T19:57:47.293Z,7.90
2019-01-03T20:00:16.854Z,7.03
2019-01-03T20:02:47.266Z,6.50
2019-01-03T20:05:16.792Z,8.13
2019-01-03T20:07:47.972Z,6.93
2019-01-03T20:10:17.517Z,6.93
2019-01-03T20:12:47.012Z,6.77
2019-01-03T20:15:16.432Z,7.97
2019-01-03T20:17:45.938Z,6.60
2019-01-03T20:20:15.513Z,7.87
2019-01-03T20:22:44.994Z,7.50
2019-01-03T20:25:16.199Z,8.37
2019-01-03T20:27:45.641Z,8.60
2019-01-03T20:30:16.248Z,9.47
2019-01-03T20:32:45.664Z,9.10
2019-01-03T20:35:15.152Z,9.03
2019-01-03T20:37:44.592Z,7.57
2019-01-03T20:40:15.116Z,8.40
2019-01-03T20:42:44.516Z,8.00
2019-01-03T20:45:13.954Z,7.93
2019-01-03T20:47:45.260Z,8.23
2019-01-03T20:50:14.749Z,7.40
2019-01-03T20:52:45.167Z,9.13
2019-01-03T20:55:14.968Z,8.30
2019-01-03T20:57:45.688Z,7.60
2019-01-03T21:00:16.322Z,8.10
2019-01-03T21:02:46.854Z,8.77
2019-01-03T21:05:16.344Z,8.37
2019-01-03T21:07:45.841Z,8.70
2019-01-03T21:10:15.404Z,8.03
2019-01-03T21:12:44.885Z,8.67
2019-01-03T21:15:17.189Z,8.20
2019-01-03T21:17:46.589Z,8.93
2019-01-03T21:20:17.864Z,9.20
2019-01-03T21:22:49.121Z,9.10
2019-01-03T21:25:18.705Z,9.17
2019-01-03T21:27:48.189Z,9.70
2019-01-03T21:30:19.447Z,9.37
2019-01-03T21:32:48.849Z,8.20
2019-01-03T21:35:19.148Z,7.67
2019-01-03T21:37:49.680Z,8.30
2019-01-03T21:40:19.089Z,8.80
2019-01-03T21:42:48.595Z,8.53
2019-01-03T21:45:18.273Z,8.33
2019-01-03T21:47:47.723Z,9.27
2019-01-03T21:50:18.299Z,7.73
2019-01-03T21:52:47.728Z,8.27
2019-01-03T21:55:17.133Z,8.23
2019-01-03T21:57:46.636Z,8.20
2019-01-03T22:00:16.352Z,9.03
2019-01-03T22:02:45.707Z,9.50
2019-01-03T22:05:15.308Z,8.30
2019-01-03T22:07:45.632Z,9.13
2019-01-03T22:10:17.655Z,8.75
2019-01-03T22:12:47.152Z,18.50
2019-01-03T22:15:16.557Z,11.10
2019-01-03T22:17:46.097Z,9.65
2019-01-03T22:20:15.576Z,10.03
2019-01-03T22:22:45.063Z,9.80
2019-01-03T22:25:14.500Z,9.18
2019-01-03T22:27:43.900Z,9.43
2019-01-03T22:30:13.307Z,9.23
2019-01-03T22:32:44.544Z,9.48
2019-01-03T22:35:13.963Z,8.83
2019-01-03T22:37:43.392Z,8.27
2019-01-03T22:40:12.821Z,9.50
2019-01-03T22:42:42.302Z,9.60
2019-01-03T22:45:12.408Z,9.08
2019-01-03T22:47:41.846Z,9.93
2019-01-03T22:50:14.081Z,10.03
2019-01-03T22:52:43.528Z,8.20
2019-01-03T22:55:12.963Z,8.78
2019-01-03T22:57:44.168Z,9.40
2019-01-03T23:00:28.142Z,8.95
2019-01-03T23:02:57.717Z,8.90
2019-01-03T23:05:27.130Z,8.93
2019-01-03T23:07:56.568Z,9.03
2019-01-03T23:10:27.851Z,8.37
2019-01-03T23:12:57.276Z,8.90
2019-01-03T23:15:26.782Z,9.98
2019-01-03T23:17:56.244Z,8.83
2019-01-03T23:20:27.198Z,7.60
2019-01-03T23:22:56.685Z,9.43
2019-01-03T23:25:26.163Z,8.47
2019-01-03T23:27:55.628Z,9.70
2019-01-03T23:30:25.037Z,8.45
2019-01-03T23:32:54.575Z,10.58
2019-01-03T23:35:25.124Z,9.00
2019-01-03T23:37:54.584Z,8.20
2019-01-03T23:40:23.996Z,17.95
2019-01-03T23:42:53.439Z,10.40
2019-01-03T23:45:24.225Z,9.90
2019-01-03T23:47:58.683Z,8.73
2019-01-03T23:50:32.854Z,9.70
2019-01-03T23:53:02.452Z,8.93
2019-01-03T23:55:38.236Z,8.83
2019-01-03T23:58:08.882Z,9.43
